sensor_id;sensor_type;location;lat;lon;timestamp;pressure;altitude;pressure_sealevel;temperature;humidity
70468;BME280;57934;51.532;7.684;2022-10-18T00:01:38;101350.75;;;14.70;100.00
70468;BME280;57934;51.532;7.684;2022-10-18T00:04:04;101353.41;;;14.70;100.00
70468;BME280;57934;51.532;7.684;2022-10-18T00:06:30;101358.53;;;14.72;100.00
70468;BME280;57934;51.532;7.684;2022-10-18T00:08:56;101352.84;;;14.75;100.00
70468;BME280;57934;51.532;7.684;2022-10-18T00:11:22;101351.38;;;14.72;100.00
70468;BME280;57934;51.532;7.684;2022-10-18T00:13:49;101354.25;;;14.71;100.00
70468;BME280;57934;51.532;7.684;2022-10-18T00:16:16;101350.97;;;14.69;100.00
70468;BME280;57934;51.532;7.684;2022-10-18T00:18:43;101351.97;;;14.68;100.00
70468;BME280;57934;51.532;7.684;2022-10-18T00:21:18;101353.19;;;14.65;100.00
70468;BME280;57934;51.532;7.684;2022-10-18T00:23:45;101349.06;;;14.63;100.00
70468;BME280;57934;51.532;7.684;2022-10-18T00:26:12;101349.44;;;14.60;100.00
70468;BME280;57934;51.532;7.684;2022-10-18T00:28:39;101355.13;;;14.56;100.00
70468;BME280;57934;51.532;7.684;2022-10-18T00:31:22;101349.66;;;14.58;100.00
70468;BME280;57934;51.532;7.684;2022-10-18T00:33:51;101356.03;;;14.64;100.00
70468;BME280;57934;51.532;7.684;2022-10-18T00:36:18;101356.91;;;14.71;100.00
70468;BME280;57934;51.532;7.684;2022-10-18T00:38:44;101352.84;;;14.75;100.00
70468;BME280;57934;51.532;7.684;2022-10-18T00:41:15;101359.59;;;14.77;100.00
70468;BME280;57934;51.532;7.684;2022-10-18T00:46:21;101343.22;;;14.74;100.00
70468;BME280;57934;51.532;7.684;2022-10-18T00:48:47;101339.25;;;14.63;100.00
70468;BME280;57934;51.532;7.684;2022-10-18T00:51:16;101340.28;;;14.62;100.00
70468;BME280;57934;51.532;7.684;2022-10-18T00:53:43;101336.81;;;14.62;100.00
70468;BME280;57934;51.532;7.684;2022-10-18T00:56:09;101334.81;;;14.64;100.00
70468;BME280;57934;51.532;7.684;2022-10-18T00:58:35;101332.75;;;14.66;100.00
70468;BME280;57934;51.532;7.684;2022-10-18T01:01:01;101333.56;;;14.66;100.00
70468;BME280;57934;51.532;7.684;2022-10-18T01:03:29;101335.63;;;14.64;100.00
70468;BME280;57934;51.532;7.684;2022-10-18T01:05:55;101333.78;;;14.65;100.00
70468;BME280;57934;51.532;7.684;2022-10-18T01:08:54;101334.16;;;14.62;100.00
70468;BME280;57934;51.532;7.684;2022-10-18T01:13:59;101322.94;;;14.66;100.00
70468;BME280;57934;51.532;7.684;2022-10-18T01:26:43;101312.34;;;14.66;100.00
70468;BME280;57934;51.532;7.684;2022-10-18T01:32:11;101320.28;;;14.66;100.00
70468;BME280;57934;51.532;7.684;2022-10-18T01:34:38;101328.91;;;14.68;100.00
70468;BME280;57934;51.532;7.684;2022-10-18T01:37:10;101328.09;;;14.68;100.00
70468;BME280;57934;51.532;7.684;2022-10-18T01:39:41;101330.31;;;14.64;100.00
70468;BME280;57934;51.532;7.684;2022-10-18T01:42:11;101324.19;;;14.64;100.00
70468;BME280;57934;51.532;7.684;2022-10-18T01:44:40;101324.19;;;14.64;100.00
70468;BME280;57934;51.532;7.684;2022-10-18T01:47:08;101317.22;;;14.63;100.00
70468;BME280;57934;51.532;7.684;2022-10-18T01:49:35;101314.75;;;14.61;100.00
70468;BME280;57934;51.532;7.684;2022-10-18T01:52:01;101316.59;;;14.61;100.00
70468;BME280;57934;51.532;7.684;2022-10-18T01:54:32;101312.09;;;14.61;100.00
70468;BME280;57934;51.532;7.684;2022-10-18T01:57:17;101319.25;;;14.61;100.00
70468;BME280;57934;51.532;7.684;2022-10-18T02:00:00;101308.22;;;14.57;100.00
70468;BME280;57934;51.532;7.684;2022-10-18T02:02:45;101306.13;;;14.52;100.00
70468;BME280;57934;51.532;7.684;2022-10-18T02:05:29;101301.63;;;14.53;100.00
70468;BME280;57934;51.532;7.684;2022-10-18T02:10:49;101297.97;;;14.54;100.00
70468;BME280;57934;51.532;7.684;2022-10-18T02:13:19;101300.00;;;14.52;100.00
70468;BME280;57934;51.532;7.684;2022-10-18T02:15:49;101290.19;;;14.52;100.00
70468;BME280;57934;51.532;7.684;2022-10-18T02:18:22;101293.88;;;14.51;100.00
70468;BME280;57934;51.532;7.684;2022-10-18T02:20:50;101291.22;;;14.51;100.00
70468;BME280;57934;51.532;7.684;2022-10-18T02:23:19;101294.50;;;14.53;100.00
70468;BME280;57934;51.532;7.684;2022-10-18T02:25:46;101299.41;;;14.56;100.00
70468;BME280;57934;51.532;7.684;2022-10-18T02:28:13;101299.59;;;14.55;100.00
70468;BME280;57934;51.532;7.684;2022-10-18T02:30:46;101293.47;;;14.54;100.00
70468;BME280;57934;51.532;7.684;2022-10-18T02:33:21;101283.88;;;14.53;100.00
70468;BME280;57934;51.532;7.684;2022-10-18T02:35:58;101292.84;;;14.52;100.00
70468;BME280;57934;51.532;7.684;2022-10-18T02:38:25;101292.03;;;14.52;100.00
70468;BME280;57934;51.532;7.684;2022-10-18T02:40:54;101289.19;;;14.53;100.00
70468;BME280;57934;51.532;7.684;2022-10-18T02:43:23;101297.34;;;14.52;100.00
70468;BME280;57934;51.532;7.684;2022-10-18T02:45:49;101292.25;;;14.50;100.00
70468;BME280;57934;51.532;7.684;2022-10-18T02:48:15;101291.41;;;14.50;100.00
70468;BME280;57934;51.532;7.684;2022-10-18T02:50:41;101303.66;;;14.51;100.00
70468;BME280;57934;51.532;7.684;2022-10-18T02:53:07;101297.53;;;14.50;100.00
70468;BME280;57934;51.532;7.684;2022-10-18T02:55:33;101297.97;;;14.54;100.00
70468;BME280;57934;51.532;7.684;2022-10-18T02:57:59;101298.78;;;14.54;100.00
70468;BME280;57934;51.532;7.684;2022-10-18T03:00:25;101298.41;;;14.58;100.00
70468;BME280;57934;51.532;7.684;2022-10-18T03:02:51;101299.00;;;14.60;100.00
70468;BME280;57934;51.532;7.684;2022-10-18T03:05:18;101296.19;;;14.61;100.00
70468;BME280;57934;51.532;7.684;2022-10-18T03:07:44;101292.72;;;14.61;100.00
70468;BME280;57934;51.532;7.684;2022-10-18T03:10:10;101297.81;;;14.62;100.00
70468;BME280;57934;51.532;7.684;2022-10-18T03:12:36;101293.16;;;14.64;100.00
70468;BME280;57934;51.532;7.684;2022-10-18T03:15:03;101297.22;;;14.67;100.00
70468;BME280;57934;51.532;7.684;2022-10-18T03:17:29;101293.56;;;14.68;100.00
70468;BME280;57934;51.532;7.684;2022-10-18T03:19:55;101297.22;;;14.67;100.00
70468;BME280;57934;51.532;7.684;2022-10-18T03:22:21;101297.81;;;14.62;100.00
70468;BME280;57934;51.532;7.684;2022-10-18T03:24:47;101300.28;;;14.64;100.00
70468;BME280;57934;51.532;7.684;2022-10-18T03:27:13;101303.56;;;14.66;100.00
70468;BME280;57934;51.532;7.684;2022-10-18T03:29:39;101305.59;;;14.64;100.00
70468;BME280;57934;51.532;7.684;2022-10-18T03:32:05;101296.19;;;14.61;100.00
70468;BME280;57934;51.532;7.684;2022-10-18T03:34:31;101305.16;;;14.60;100.00
70468;BME280;57934;51.532;7.684;2022-10-18T03:36:57;101293.72;;;14.60;100.00
70468;BME280;57934;51.532;7.684;2022-10-18T03:39:23;101295.75;;;14.58;100.00
70468;BME280;57934;51.532;7.684;2022-10-18T03:41:49;101296.97;;;14.55;100.00
70468;BME280;57934;51.532;7.684;2022-10-18T03:44:15;101289.19;;;14.53;100.00
70468;BME280;57934;51.532;7.684;2022-10-18T03:46:41;101283.88;;;14.53;100.00
70468;BME280;57934;51.532;7.684;2022-10-18T03:49:07;101283.88;;;14.53;100.00
70468;BME280;57934;51.532;7.684;2022-10-18T03:51:33;101284.50;;;14.55;100.00
70468;BME280;57934;51.532;7.684;2022-10-18T03:53:59;101291.00;;;14.53;100.00
70468;BME280;57934;51.532;7.684;2022-10-18T03:56:25;101286.13;;;14.56;100.00
70468;BME280;57934;51.532;7.684;2022-10-18T03:58:51;101285.13;;;14.58;100.00
70468;BME280;57934;51.532;7.684;2022-10-18T04:01:18;101287.59;;;14.59;100.00
70468;BME280;57934;51.532;7.684;2022-10-18T04:03:44;101296.19;;;14.61;100.00
70468;BME280;57934;51.532;7.684;2022-10-18T04:06:10;101293.75;;;14.66;100.00
70468;BME280;57934;51.532;7.684;2022-10-18T04:08:36;101293.75;;;14.66;100.00
70468;BME280;57934;51.532;7.684;2022-10-18T04:11:06;101296.78;;;14.63;100.00
70468;BME280;57934;51.532;7.684;2022-10-18T04:13:35;101305.34;;;14.59;100.00
70468;BME280;57934;51.532;7.684;2022-10-18T04:16:01;101304.97;;;14.62;100.00
70468;BME280;57934;51.532;7.684;2022-10-18T04:18:28;101297.81;;;14.62;100.00
70468;BME280;57934;51.532;7.684;2022-10-18T04:20:53;101303.13;;;14.62;100.00
70468;BME280;57934;51.532;7.684;2022-10-18T04:23:20;101306.81;;;14.61;100.00
70468;BME280;57934;51.532;7.684;2022-10-18T04:25:46;101309.88;;;14.65;100.00
70468;BME280;57934;51.532;7.684;2022-10-18T04:28:12;101300.91;;;14.66;100.00
70468;BME280;57934;51.532;7.684;2022-10-18T04:30:38;101305.59;;;14.64;100.00
70468;BME280;57934;51.532;7.684;2022-10-18T04:33:04;101295.38;;;14.61;100.00
70468;BME280;57934;51.532;7.684;2022-10-18T04:35:30;101306.16;;;14.59;100.00
70468;BME280;57934;51.532;7.684;2022-10-18T04:37:56;101298.41;;;14.58;100.00
70468;BME280;57934;51.532;7.684;2022-10-18T04:40:22;101302.91;;;14.57;100.00
70468;BME280;57934;51.532;7.684;2022-10-18T04:42:48;101298.78;;;14.54;100.00
70468;BME280;57934;51.532;7.684;2022-10-18T04:45:14;101302.91;;;14.57;100.00
70468;BME280;57934;51.532;7.684;2022-10-18T04:47:40;101306.97;;;14.60;100.00
70468;BME280;57934;51.532;7.684;2022-10-18T04:50:07;101307.81;;;14.60;100.00
70468;BME280;57934;51.532;7.684;2022-10-18T04:52:33;101306.97;;;14.60;100.00
70468;BME280;57934;51.532;7.684;2022-10-18T04:54:59;101308.66;;;14.61;100.00
70468;BME280;57934;51.532;7.684;2022-10-18T04:57:25;101310.47;;;14.60;100.00
70468;BME280;57934;51.532;7.684;2022-10-18T04:59:51;101313.13;;;14.60;100.00
70468;BME280;57934;51.532;7.684;2022-10-18T05:02:17;101309.03;;;14.58;100.00
70468;BME280;57934;51.532;7.684;2022-10-18T05:04:43;101304.91;;;14.55;100.00
70468;BME280;57934;51.532;7.684;2022-10-18T05:07:09;101311.03;;;14.55;100.00
70468;BME280;57934;51.532;7.684;2022-10-18T05:09:35;101312.06;;;14.54;100.00
70468;BME280;57934;51.532;7.684;2022-10-18T05:12:01;101315.16;;;14.58;100.00
70468;BME280;57934;51.532;7.684;2022-10-18T05:14:27;101309.63;;;14.60;100.00
70468;BME280;57934;51.532;7.684;2022-10-18T05:16:53;101310.28;;;14.62;100.00
70468;BME280;57934;51.532;7.684;2022-10-18T05:19:19;101310.91;;;14.64;100.00
70468;BME280;57934;51.532;7.684;2022-10-18T05:21:45;101315.81;;;14.67;100.00
70468;BME280;57934;51.532;7.684;2022-10-18T05:24:11;101313.59;;;14.70;100.00
70468;BME280;57934;51.532;7.684;2022-10-18T05:26:37;101318.06;;;14.70;100.00
70468;BME280;57934;51.532;7.684;2022-10-18T05:29:03;101312.16;;;14.68;100.00
70468;BME280;57934;51.532;7.684;2022-10-18T05:31:29;101309.69;;;14.66;100.00
70468;BME280;57934;51.532;7.684;2022-10-18T05:33:56;101306.41;;;14.64;100.00
70468;BME280;57934;51.532;7.684;2022-10-18T05:36:22;101315.00;;;14.66;100.00
70468;BME280;57934;51.532;7.684;2022-10-18T05:38:50;101311.53;;;14.66;100.00
70468;BME280;57934;51.532;7.684;2022-10-18T05:41:18;101314.00;;;14.67;100.00
70468;BME280;57934;51.532;7.684;2022-10-18T05:43:44;101301.72;;;14.66;100.00
70468;BME280;57934;51.532;7.684;2022-10-18T05:46:10;101292.72;;;14.61;100.00
70468;BME280;57934;51.532;7.684;2022-10-18T05:48:37;101301.88;;;14.58;100.00
70468;BME280;57934;51.532;7.684;2022-10-18T05:51:04;101308.00;;;14.59;100.00
70468;BME280;57934;51.532;7.684;2022-10-18T05:53:30;101310.28;;;14.62;100.00
70468;BME280;57934;51.532;7.684;2022-10-18T05:56:00;101312.94;;;14.62;100.00
70468;BME280;57934;51.532;7.684;2022-10-18T05:58:26;101311.91;;;14.63;100.00
70468;BME280;57934;51.532;7.684;2022-10-18T06:00:52;101312.72;;;14.63;100.00
70468;BME280;57934;51.532;7.684;2022-10-18T06:03:18;101312.97;;;14.68;100.00
70468;BME280;57934;51.532;7.684;2022-10-18T06:05:44;101317.66;;;14.66;100.00
70468;BME280;57934;51.532;7.684;2022-10-18T06:08:10;101320.13;;;14.68;100.00
70468;BME280;57934;51.532;7.684;2022-10-18T06:10:38;101320.56;;;14.71;100.00
70468;BME280;57934;51.532;7.684;2022-10-18T06:13:05;101325.47;;;14.74;100.00
70468;BME280;57934;51.532;7.684;2022-10-18T06:15:31;101321.16;;;14.73;100.00
70468;BME280;57934;51.532;7.684;2022-10-18T06:17:57;101329.34;;;14.72;100.00
70468;BME280;57934;51.532;7.684;2022-10-18T06:20:23;101325.66;;;14.73;100.00
70468;BME280;57934;51.532;7.684;2022-10-18T06:22:52;101334.81;;;14.70;100.00
70468;BME280;57934;51.532;7.684;2022-10-18T06:25:18;101334.81;;;14.70;100.00
70468;BME280;57934;51.532;7.684;2022-10-18T06:27:44;101342.59;;;14.72;100.00
70468;BME280;57934;51.532;7.684;2022-10-18T06:30:10;101334.63;;;14.72;100.00
70468;BME280;57934;51.532;7.684;2022-10-18T06:32:36;101341.41;;;14.74;100.00
70468;BME280;57934;51.532;7.684;2022-10-18T06:35:03;101344.88;;;14.75;100.00
70468;BME280;57934;51.532;7.684;2022-10-18T06:37:29;101342.22;;;14.75;100.00
70468;BME280;57934;51.532;7.684;2022-10-18T06:39:55;101352.63;;;14.76;100.00
70468;BME280;57934;51.532;7.684;2022-10-18T06:42:21;101343.03;;;14.75;100.00
70468;BME280;57934;51.532;7.684;2022-10-18T06:44:47;101353.22;;;14.72;100.00
70468;BME280;57934;51.532;7.684;2022-10-18T06:47:14;101351.59;;;14.71;100.00
70468;BME280;57934;51.532;7.684;2022-10-18T06:49:40;101362.00;;;14.72;100.00
70468;BME280;57934;51.532;7.684;2022-10-18T06:52:06;101361.63;;;14.75;100.00
70468;BME280;57934;51.532;7.684;2022-10-18T06:54:32;101356.94;;;14.77;100.00
70468;BME280;57934;51.532;7.684;2022-10-18T06:56:58;101361.25;;;14.78;100.00
70468;BME280;57934;51.532;7.684;2022-10-18T06:59:27;101363.91;;;14.78;100.00
70468;BME280;57934;51.532;7.684;2022-10-18T07:01:53;101373.69;;;14.78;100.00
70468;BME280;57934;51.532;7.684;2022-10-18T07:04:19;101368.56;;;14.76;100.00
70468;BME280;57934;51.532;7.684;2022-10-18T07:06:45;101369.53;;;14.69;100.00
70468;BME280;57934;51.532;7.684;2022-10-18T07:09:11;101368.47;;;14.63;100.00
70468;BME280;57934;51.532;7.684;2022-10-18T07:11:37;101376.88;;;14.67;100.00
70468;BME280;57934;51.532;7.684;2022-10-18T07:14:04;101377.72;;;14.67;100.00
70468;BME280;57934;51.532;7.684;2022-10-18T07:16:31;101387.09;;;14.70;100.00
70468;BME280;57934;51.532;7.684;2022-10-18T07:18:57;101382.59;;;14.70;100.00
70468;BME280;57934;51.532;7.684;2022-10-18T07:21:25;101386.13;;;14.71;100.00
70468;BME280;57934;51.532;7.684;2022-10-18T07:23:51;101400.75;;;14.67;100.00
70468;BME280;57934;51.532;7.684;2022-10-18T07:28:53;101401.78;;;14.66;100.00
70468;BME280;57934;51.532;7.684;2022-10-18T07:31:21;101406.66;;;14.62;100.00
70468;BME280;57934;51.532;7.684;2022-10-18T07:33:47;101408.50;;;14.62;100.00
70468;BME280;57934;51.532;7.684;2022-10-18T07:36:13;101410.13;;;14.63;100.00
70468;BME280;57934;51.532;7.684;2022-10-18T07:38:40;101412.78;;;14.63;100.00
70468;BME280;57934;51.532;7.684;2022-10-18T07:41:07;101405.84;;;14.62;100.00
70468;BME280;57934;51.532;7.684;2022-10-18T07:43:34;101412.78;;;14.63;100.00
70468;BME280;57934;51.532;7.684;2022-10-18T07:46:02;101419.13;;;14.62;100.00
70468;BME280;57934;51.532;7.684;2022-10-18T07:48:29;101419.75;;;14.64;100.00
70468;BME280;57934;51.532;7.684;2022-10-18T07:50:59;101419.56;;;14.65;100.00
70468;BME280;57934;51.532;7.684;2022-10-18T07:53:26;101415.69;;;14.68;100.00
70468;BME280;57934;51.532;7.684;2022-10-18T07:56:00;101414.88;;;14.67;100.00
70468;BME280;57934;51.532;7.684;2022-10-18T07:58:27;101421.63;;;14.70;100.00
70468;BME280;57934;51.532;7.684;2022-10-18T08:00:53;101417.97;;;14.71;100.00
70468;BME280;57934;51.532;7.684;2022-10-18T08:03:19;101418.19;;;14.76;100.00
70468;BME280;57934;51.532;7.684;2022-10-18T08:05:52;101418.19;;;14.76;100.00
70468;BME280;57934;51.532;7.684;2022-10-18T08:08:20;101427.03;;;14.83;100.00
70468;BME280;57934;51.532;7.684;2022-10-18T08:10:47;101433.00;;;14.85;100.00
70468;BME280;57934;51.532;7.684;2022-10-18T08:13:13;101446.72;;;14.89;100.00
70468;BME280;57934;51.532;7.684;2022-10-18T08:15:40;101436.53;;;14.92;100.00
70468;BME280;57934;51.532;7.684;2022-10-18T08:18:06;101440.59;;;14.95;100.00
70468;BME280;57934;51.532;7.684;2022-10-18T08:20:32;101456.97;;;14.98;100.00
70468;BME280;57934;51.532;7.684;2022-10-18T08:22:58;101462.88;;;14.94;100.00
70468;BME280;57934;51.532;7.684;2022-10-18T08:25:24;101458.75;;;14.91;100.00
70468;BME280;57934;51.532;7.684;2022-10-18T08:27:50;101455.94;;;14.93;100.00
70468;BME280;57934;51.532;7.684;2022-10-18T08:30:16;101463.06;;;14.92;100.00
70468;BME280;57934;51.532;7.684;2022-10-18T08:32:42;101467.75;;;14.90;100.00
70468;BME280;57934;51.532;7.684;2022-10-18T08:35:09;101466.13;;;14.89;100.00
70468;BME280;57934;51.532;7.684;2022-10-18T08:37:34;101466.72;;;14.91;100.00
70468;BME280;57934;51.532;7.684;2022-10-18T08:40:01;101465.53;;;14.94;100.00
70468;BME280;57934;51.532;7.684;2022-10-18T08:45:11;101473.31;;;14.95;100.00
70468;BME280;57934;51.532;7.684;2022-10-18T08:47:40;101476.16;;;14.94;100.00
70468;BME280;57934;51.532;7.684;2022-10-18T08:50:16;101481.66;;;14.92;100.00
70468;BME280;57934;51.532;7.684;2022-10-18T08:53:05;101479.41;;;14.89;100.00
70468;BME280;57934;51.532;7.684;2022-10-18T08:55:41;101490.00;;;14.89;100.00
70468;BME280;57934;51.532;7.684;2022-10-18T08:58:22;101491.47;;;14.92;100.00
70468;BME280;57934;51.532;7.684;2022-10-18T09:06:51;101485.53;;;14.90;100.00
70468;BME280;57934;51.532;7.684;2022-10-18T09:18:02;101493.28;;;14.91;100.00
70468;BME280;57934;51.532;7.684;2022-10-18T09:23:21;101512.84;;;14.84;100.00
70468;BME280;57934;51.532;7.684;2022-10-18T09:26:09;101511.44;;;14.88;100.00
70468;BME280;57934;51.532;7.684;2022-10-18T09:35:11;101510.53;;;15.02;100.00
70468;BME280;57934;51.532;7.684;2022-10-18T09:37:39;101509.19;;;15.13;100.00
70468;BME280;57934;51.532;7.684;2022-10-18T09:42:41;101511.88;;;15.47;100.00
70468;BME280;57934;51.532;7.684;2022-10-18T09:50:28;101507.44;;;15.89;100.00
70468;BME280;57934;51.532;7.684;2022-10-18T09:55:49;101509.59;;;16.20;100.00
70468;BME280;57934;51.532;7.684;2022-10-18T09:58:17;101513.78;;;16.43;100.00
70468;BME280;57934;51.532;7.684;2022-10-18T10:00:47;101510.50;;;16.48;100.00
70468;BME280;57934;51.532;7.684;2022-10-18T10:03:14;101521.34;;;16.53;100.00
70468;BME280;57934;51.532;7.684;2022-10-18T10:05:41;101517.47;;;16.55;100.00
70468;BME280;57934;51.532;7.684;2022-10-18T10:08:08;101513.56;;;16.51;100.00
70468;BME280;57934;51.532;7.684;2022-10-18T10:10:37;101514.38;;;16.45;100.00
70468;BME280;57934;51.532;7.684;2022-10-18T10:13:17;101515.38;;;16.31;100.00
70468;BME280;57934;51.532;7.684;2022-10-18T10:15:55;101519.00;;;16.16;100.00
70468;BME280;57934;51.532;7.684;2022-10-18T10:18:28;101509.56;;;16.14;100.00
70468;BME280;57934;51.532;7.684;2022-10-18T10:21:01;101518.41;;;16.21;100.00
70468;BME280;57934;51.532;7.684;2022-10-18T10:23:30;101520.47;;;16.26;100.00
70468;BME280;57934;51.532;7.684;2022-10-18T10:26:00;101521.47;;;16.25;100.00
70468;BME280;57934;51.532;7.684;2022-10-18T10:28:33;101520.28;;;16.27;100.00
70468;BME280;57934;51.532;7.684;2022-10-18T10:31:29;101527.81;;;16.17;100.00
70468;BME280;57934;51.532;7.684;2022-10-18T10:36:48;101523.16;;;16.32;100.00
70468;BME280;57934;51.532;7.684;2022-10-18T10:39:17;101525.63;;;16.40;100.00
70468;BME280;57934;51.532;7.684;2022-10-18T10:44:15;101533.22;;;16.43;99.73
70468;BME280;57934;51.532;7.684;2022-10-18T10:46:42;101532.38;;;16.36;99.56
70468;BME280;57934;51.532;7.684;2022-10-18T10:49:17;101529.50;;;16.38;99.60
70468;BME280;57934;51.532;7.684;2022-10-18T10:51:45;101529.34;;;16.39;99.69
70468;BME280;57934;51.532;7.684;2022-10-18T10:54:21;101534.66;;;16.46;100.00
70468;BME280;57934;51.532;7.684;2022-10-18T10:59:52;101526.81;;;16.25;98.60
70468;BME280;57934;51.532;7.684;2022-10-18T11:02:21;101527.59;;;16.12;98.76
70468;BME280;57934;51.532;7.684;2022-10-18T11:04:53;101536.75;;;16.03;99.13
70468;BME280;57934;51.532;7.684;2022-10-18T11:09:57;101544.75;;;16.03;99.56
70468;BME280;57934;51.532;7.684;2022-10-18T11:12:45;101536.97;;;16.01;99.32
70468;BME280;57934;51.532;7.684;2022-10-18T11:15:19;101537.97;;;16.00;99.16
70468;BME280;57934;51.532;7.684;2022-10-18T11:20:43;101546.81;;;16.07;99.39
70468;BME280;57934;51.532;7.684;2022-10-18T11:23:13;101538.00;;;16.07;98.00
70468;BME280;57934;51.532;7.684;2022-10-18T11:40:02;101536.25;;;16.34;97.22
70468;BME280;57934;51.532;7.684;2022-10-18T11:47:55;101536.56;;;16.72;94.09
70468;BME280;57934;51.532;7.684;2022-10-18T11:53:36;101536.78;;;17.44;92.94
70468;BME280;57934;51.532;7.684;2022-10-18T11:56:24;101528.75;;;17.77;91.88
70468;BME280;57934;51.532;7.684;2022-10-18T12:04:42;101530.00;;;18.57;84.28
70468;BME280;57934;51.532;7.684;2022-10-18T12:07:13;101523.47;;;18.53;82.82
70468;BME280;57934;51.532;7.684;2022-10-18T12:09:44;101521.41;;;18.49;82.70
70468;BME280;57934;51.532;7.684;2022-10-18T12:12:23;101517.63;;;18.31;83.57
70468;BME280;57934;51.532;7.684;2022-10-18T12:14:57;101515.22;;;18.17;83.31
70468;BME280;57934;51.532;7.684;2022-10-18T12:17:34;101516.72;;;18.06;83.95
70468;BME280;57934;51.532;7.684;2022-10-18T12:20:09;101499.88;;;18.12;83.93
70468;BME280;57934;51.532;7.684;2022-10-18T12:22:45;101516.97;;;17.98;84.02
70468;BME280;57934;51.532;7.684;2022-10-18T12:25:14;101526.97;;;18.09;84.79
70468;BME280;57934;51.532;7.684;2022-10-18T12:27:55;101508.19;;;17.91;82.15
70468;BME280;57934;51.532;7.684;2022-10-18T12:30:32;101508.44;;;17.69;83.49
70468;BME280;57934;51.532;7.684;2022-10-18T12:33:06;101500.47;;;17.56;84.25
70468;BME280;57934;51.532;7.684;2022-10-18T12:38:32;101510.09;;;17.57;82.76
70468;BME280;57934;51.532;7.684;2022-10-18T12:41:00;101498.59;;;17.56;82.96
70468;BME280;57934;51.532;7.684;2022-10-18T12:43:29;101499.63;;;17.62;82.98
70468;BME280;57934;51.532;7.684;2022-10-18T12:46:04;101502.03;;;17.83;83.41
70468;BME280;57934;51.532;7.684;2022-10-18T12:48:33;101510.75;;;18.04;80.40
70468;BME280;57934;51.532;7.684;2022-10-18T12:53:32;101497.31;;;18.24;78.17
70468;BME280;57934;51.532;7.684;2022-10-18T13:09:28;101495.41;;;17.14;83.48
70468;BME280;57934;51.532;7.684;2022-10-18T13:15:26;101502.38;;;16.96;84.46
70468;BME280;57934;51.532;7.684;2022-10-18T13:18:05;101498.47;;;16.98;82.23
70468;BME280;57934;51.532;7.684;2022-10-18T13:20:44;101492.13;;;16.92;82.85
70468;BME280;57934;51.532;7.684;2022-10-18T13:26:35;101503.81;;;17.18;77.62
70468;BME280;57934;51.532;7.684;2022-10-18T13:32:06;101496.63;;;16.99;79.79
70468;BME280;57934;51.532;7.684;2022-10-18T13:34:42;101503.41;;;17.01;77.93
70468;BME280;57934;51.532;7.684;2022-10-18T13:39:35;101494.75;;;17.19;77.60
70468;BME280;57934;51.532;7.684;2022-10-18T13:44:28;101499.06;;;17.27;76.97
70468;BME280;57934;51.532;7.684;2022-10-18T14:09:17;101501.19;;;17.89;72.81
70468;BME280;57934;51.532;7.684;2022-10-18T14:11:49;101491.25;;;18.03;72.43
70468;BME280;57934;51.532;7.684;2022-10-18T14:14:19;101498.00;;;18.12;71.83
70468;BME280;57934;51.532;7.684;2022-10-18T14:17:04;101507.50;;;18.02;71.74
70468;BME280;57934;51.532;7.684;2022-10-18T14:22:20;101497.28;;;17.85;72.68
70468;BME280;57934;51.532;7.684;2022-10-18T14:24:51;101499.38;;;17.83;70.56
70468;BME280;57934;51.532;7.684;2022-10-18T14:27:21;101496.91;;;17.69;69.42
70468;BME280;57934;51.532;7.684;2022-10-18T14:29:49;101501.28;;;17.56;67.55
70468;BME280;57934;51.532;7.684;2022-10-18T14:32:27;101500.66;;;17.48;68.28
70468;BME280;57934;51.532;7.684;2022-10-18T14:34:54;101502.31;;;17.49;68.43
70468;BME280;57934;51.532;7.684;2022-10-18T14:37:27;101505.19;;;17.47;68.31
70468;BME280;57934;51.532;7.684;2022-10-18T14:39:53;101505.38;;;17.52;68.22
70468;BME280;57934;51.532;7.684;2022-10-18T14:42:24;101505.38;;;17.52;67.92
70468;BME280;57934;51.532;7.684;2022-10-18T14:44:51;101504.53;;;17.58;68.16
70468;BME280;57934;51.532;7.684;2022-10-18T14:47:23;101508.63;;;17.61;68.17
70468;BME280;57934;51.532;7.684;2022-10-18T14:49:50;101512.56;;;17.52;67.46
70468;BME280;57934;51.532;7.684;2022-10-18T14:52:25;101516.47;;;17.42;67.43
70468;BME280;57934;51.532;7.684;2022-10-18T14:54:56;101516.09;;;17.32;68.94
70468;BME280;57934;51.532;7.684;2022-10-18T14:57:31;101509.31;;;17.23;68.81
70468;BME280;57934;51.532;7.684;2022-10-18T15:00:00;101511.59;;;17.13;69.76
70468;BME280;57934;51.532;7.684;2022-10-18T15:02:31;101517.75;;;17.00;67.88
70468;BME280;57934;51.532;7.684;2022-10-18T15:05:08;101521.84;;;16.96;68.94
70468;BME280;57934;51.532;7.684;2022-10-18T15:07:35;101521.84;;;16.83;69.12
70468;BME280;57934;51.532;7.684;2022-10-18T15:10:03;101516.88;;;16.73;66.51
70468;BME280;57934;51.532;7.684;2022-10-18T15:12:31;101523.44;;;16.70;67.09
70468;BME280;57934;51.532;7.684;2022-10-18T15:15:00;101524.84;;;16.60;68.18
70468;BME280;57934;51.532;7.684;2022-10-18T15:17:29;101529.16;;;16.54;68.16
70468;BME280;57934;51.532;7.684;2022-10-18T15:22:24;101514.16;;;16.33;68.48
70468;BME280;57934;51.532;7.684;2022-10-18T15:25:11;101516.56;;;16.21;67.97
70468;BME280;57934;51.532;7.684;2022-10-18T15:27:41;101518.63;;;16.19;68.23
70468;BME280;57934;51.532;7.684;2022-10-18T15:30:26;101518.81;;;16.11;69.34
70468;BME280;57934;51.532;7.684;2022-10-18T15:32:59;101530.00;;;16.00;69.94
70468;BME280;57934;51.532;7.684;2022-10-18T15:35:28;101521.78;;;15.95;70.32
70468;BME280;57934;51.532;7.684;2022-10-18T15:37:57;101520.56;;;15.91;69.08